createdAt,value
2023-05-25T00:02:47.013Z,990.4
2023-05-25T00:04:48.060Z,990.3
2023-05-25T00:08:51.517Z,990.3
2023-05-25T00:10:53.077Z,990.3
2023-05-25T00:14:55.965Z,990.2
2023-05-25T00:18:58.906Z,990.1
2023-05-25T00:20:59.989Z,990.2
2023-05-25T00:25:02.679Z,990.1
2023-05-25T00:31:06.885Z,990
2023-05-25T00:35:10.018Z,990
2023-05-25T00:37:11.855Z,990
2023-05-25T00:39:13.035Z,990.1
2023-05-25T00:41:14.351Z,990.1
2023-05-25T00:45:17.832Z,990.1
2023-05-25T00:47:19.082Z,990.1
2023-05-25T00:51:21.834Z,990.1
2023-05-25T00:53:23.449Z,990
2023-05-25T00:57:26.751Z,990.1
2023-05-25T00:59:28.596Z,990.1
2023-05-25T01:01:29.944Z,990.1
2023-05-25T01:03:31.497Z,990
2023-05-25T01:07:34.129Z,990.1
2023-05-25T01:09:35.818Z,990.1
2023-05-25T01:12:21.488Z,990
2023-05-25T01:14:22.867Z,990
2023-05-25T01:18:25.808Z,990
2023-05-25T01:22:28.760Z,990.1
2023-05-25T01:24:30.310Z,990
2023-05-25T01:28:33.509Z,990.1
2023-05-25T01:30:34.553Z,990.2
2023-05-25T01:34:45.766Z,990.2
2023-05-25T01:38:40.583Z,990.2
2023-05-25T01:40:41.605Z,990.2
2023-05-25T01:44:44.642Z,990.1
2023-05-25T01:46:46.224Z,990.1
2023-05-25T01:50:49.050Z,990.2
2023-05-25T01:54:51.866Z,990.1
2023-05-25T01:56:53.783Z,990.2
2023-05-25T02:00:56.619Z,990.2
2023-05-25T02:05:00.077Z,990.1
2023-05-25T02:07:01.150Z,990.2
2023-05-25T02:11:04.518Z,990.2
2023-05-25T02:13:05.885Z,990.2
2023-05-25T02:17:09.090Z,990.3
2023-05-25T02:21:11.584Z,990.2
2023-05-25T02:23:13.575Z,990.2
2023-05-25T02:27:17.150Z,990.2
2023-05-25T02:29:18.599Z,990.3
2023-05-25T02:33:21.469Z,990.2
2023-05-25T02:37:25.069Z,990.2
2023-05-25T02:39:26.106Z,990.1
2023-05-25T02:43:29.120Z,990.1
2023-05-25T02:47:32.530Z,990.2
2023-05-25T02:49:34.182Z,990.2
2023-05-25T02:53:37.209Z,990.2
2023-05-25T02:55:38.761Z,990.2
2023-05-25T02:59:41.744Z,990.2
2023-05-25T03:03:45.250Z,990.1
2023-05-25T03:05:46.802Z,990.2
2023-05-25T03:09:49.909Z,990.2
2023-05-25T03:11:51.321Z,990.2
2023-05-25T03:15:54.725Z,990.2
2023-05-25T03:19:58.011Z,990.2
2023-05-25T03:21:59.217Z,990.2
2023-05-25T03:26:02.339Z,990.3
2023-05-25T03:30:05.632Z,990.4
2023-05-25T03:32:06.863Z,990.5
2023-05-25T03:36:10.122Z,990.5
2023-05-25T03:38:11.577Z,990.5
2023-05-25T03:42:14.617Z,990.5
2023-05-25T03:46:17.757Z,990.6
2023-05-25T03:48:18.741Z,990.6
2023-05-25T03:52:21.758Z,990.6
2023-05-25T03:54:23.775Z,990.6
2023-05-25T03:58:25.972Z,990.7
2023-05-25T04:02:28.570Z,990.7
2023-05-25T04:04:29.600Z,990.8
2023-05-25T04:08:32.464Z,990.8
2023-05-25T04:14:36.214Z,990.8
2023-05-25T04:18:39.138Z,990.8
2023-05-25T04:20:41.093Z,990.9
2023-05-25T04:22:42.217Z,991
2023-05-25T04:24:43.319Z,990.9
2023-05-25T04:28:46.202Z,990.8
2023-05-25T04:30:47.245Z,990.9
2023-05-25T04:34:50.411Z,990.9
2023-05-25T04:36:51.937Z,991
2023-05-25T04:40:54.555Z,990.9
2023-05-25T04:44:57.918Z,990.8
2023-05-25T04:46:59.503Z,990.8
2023-05-25T04:51:01.694Z,990.9
2023-05-25T04:53:03.584Z,990.9
2023-05-25T04:57:05.966Z,990.9
2023-05-25T05:01:09.407Z,990.9
2023-05-25T05:03:10.410Z,990.9
2023-05-25T05:07:13.401Z,991
2023-05-25T05:11:15.707Z,990.9
2023-05-25T05:13:16.882Z,991
2023-05-25T05:17:19.625Z,991.1
2023-05-25T05:19:21.070Z,991.1
2023-05-25T05:23:23.993Z,991
2023-05-25T05:27:26.290Z,991.1
2023-05-25T05:29:27.287Z,991.1
2023-05-25T05:33:29.391Z,991.1
2023-05-25T05:35:30.404Z,991.1
2023-05-25T05:39:33.255Z,991.2
2023-05-25T05:43:36.430Z,991.1
2023-05-25T05:45:38.165Z,991.1
2023-05-25T05:49:40.699Z,991.1
2023-05-25T05:53:43.323Z,991.1
2023-05-25T05:55:44.974Z,991.1
2023-05-25T05:59:47.319Z,991.1
2023-05-25T06:01:49.144Z,991.1
2023-05-25T06:03:50.076Z,991.1
2023-05-25T06:05:51.272Z,991.1
2023-05-25T06:09:53.300Z,991.2
2023-05-25T06:11:55.094Z,991.2
2023-05-25T06:13:56.077Z,991.1
2023-05-25T06:15:58.281Z,991.2
2023-05-25T06:17:59.960Z,991.1
2023-05-25T06:22:02.197Z,991.2
2023-05-25T06:24:03.331Z,991.2
2023-05-25T06:26:04.676Z,991.2
2023-05-25T06:28:05.962Z,991.2
2023-05-25T06:32:09.223Z,991.2
2023-05-25T06:34:10.216Z,991.2
2023-05-25T06:38:13.319Z,991.2
2023-05-25T06:42:16.060Z,991.2
2023-05-25T06:44:17.017Z,991.2
2023-05-25T06:48:20.038Z,991.1
2023-05-25T06:50:21.419Z,991.2
2023-05-25T06:54:24.196Z,991.2
2023-05-25T06:58:26.555Z,991.3
2023-05-25T07:00:28.680Z,991.3
2023-05-25T07:04:32.253Z,991.3
2023-05-25T07:08:34.321Z,991.3
2023-05-25T07:10:35.854Z,991.3
2023-05-25T07:14:38.006Z,991.4
2023-05-25T07:16:39.547Z,991.3
2023-05-25T07:20:42.886Z,991.3
2023-05-25T07:24:46.162Z,991.3
2023-05-25T07:26:47.328Z,991.3
2023-05-25T07:30:50.784Z,991.2
2023-05-25T07:34:53.664Z,991.3
2023-05-25T07:36:55.363Z,991.2
2023-05-25T07:40:57.951Z,991.1
2023-05-25T07:42:59.469Z,991.3
2023-05-25T07:47:02.089Z,991.3
2023-05-25T07:51:04.729Z,991.3
2023-05-25T07:53:06.227Z,991.3
2023-05-25T07:57:08.142Z,991.3
2023-05-25T08:01:55.484Z,991.3
2023-05-25T08:03:56.776Z,991.4
2023-05-25T08:07:58.803Z,991.3
2023-05-25T08:12:21.764Z,991.3
2023-05-25T08:14:03.595Z,991.3
2023-05-25T08:18:06.800Z,991.3
2023-05-25T08:20:08.067Z,991.3
2023-05-25T08:24:11.127Z,991.3
2023-05-25T08:28:14.343Z,991.3
2023-05-25T08:30:15.914Z,991.3
2023-05-25T08:34:18.551Z,991.3
2023-05-25T08:36:19.877Z,991.3
2023-05-25T08:40:22.859Z,991.3
2023-05-25T08:44:26.247Z,991.3
2023-05-25T08:46:27.964Z,991.3
2023-05-25T08:50:30.541Z,991.3
2023-05-25T08:54:32.934Z,991.3
2023-05-25T08:56:36.308Z,991.3
2023-05-25T09:00:36.445Z,991.3
2023-05-25T09:02:37.371Z,991.4
2023-05-25T09:04:38.560Z,991.4
2023-05-25T09:06:39.982Z,991.3
2023-05-25T09:10:43.104Z,991.3
2023-05-25T09:12:45.192Z,991.3
2023-05-25T09:14:46.564Z,991.3
2023-05-25T09:16:47.719Z,991.4
2023-05-25T09:18:48.986Z,991.3
2023-05-25T09:22:51.517Z,991.4
2023-05-25T09:24:53.320Z,991.3
2023-05-25T09:26:54.601Z,991.3
2023-05-25T09:28:56.350Z,991.4
2023-05-25T09:30:57.623Z,991.4
2023-05-25T09:34:59.869Z,991.4
2023-05-25T09:39:03.068Z,991.4
2023-05-25T09:41:04.088Z,991.5
2023-05-25T09:43:05.868Z,991.4
2023-05-25T09:49:09.523Z,991.4
2023-05-25T09:53:13.165Z,991.4
2023-05-25T09:55:14.785Z,991.4
2023-05-25T09:59:16.446Z,991.4
2023-05-25T10:01:17.751Z,991.4
2023-05-25T10:05:20.152Z,991.4
2023-05-25T10:09:22.123Z,991.5
2023-05-25T10:11:23.810Z,991.5
2023-05-25T10:15:26.090Z,991.4
2023-05-25T10:17:27.469Z,991.4
2023-05-25T10:21:31.697Z,991.4
2023-05-25T10:25:35.171Z,991.4
2023-05-25T10:27:36.630Z,991.5
2023-05-25T10:31:39.509Z,991.5
2023-05-25T10:35:51.113Z,991.4
2023-05-25T10:37:43.245Z,991.3
2023-05-25T10:39:44.147Z,991.5
2023-05-25T10:41:45.110Z,991.5
2023-05-25T10:45:47.793Z,991.3
2023-05-25T10:47:49.368Z,991.4
2023-05-25T10:51:52.337Z,991.4
2023-05-25T10:53:53.634Z,991.4
2023-05-25T10:57:56.793Z,991.4
2023-05-25T10:59:58.544Z,991.4
2023-05-25T11:04:00.248Z,991.4
2023-05-25T11:08:02.709Z,991.4
2023-05-25T11:10:04.350Z,991.4
2023-05-25T11:14:07.122Z,991.3
2023-05-25T11:20:11.275Z,991.3
2023-05-25T11:24:13.678Z,991.4
2023-05-25T11:26:14.962Z,991.4
2023-05-25T11:30:17.513Z,991.4
2023-05-25T11:34:29.889Z,991.3
2023-05-25T11:36:21.842Z,991.2
2023-05-25T11:40:24.572Z,991.2
2023-05-25T11:42:25.876Z,991.3
2023-05-25T11:46:28.615Z,991.3
2023-05-25T11:50:30.670Z,991.1
2023-05-25T11:52:32.302Z,991.1
2023-05-25T11:56:35.820Z,991.2
2023-05-25T11:58:35.890Z,991.2
2023-05-25T12:02:37.574Z,991.2
2023-05-25T12:06:39.818Z,991.2
2023-05-25T12:08:40.986Z,991.2
2023-05-25T12:12:44.598Z,991.1
2023-05-25T12:16:47.074Z,991.1
2023-05-25T12:18:47.931Z,991.2
2023-05-25T12:22:51.183Z,991
2023-05-25T12:24:52.027Z,991
2023-05-25T12:28:54.640Z,991
2023-05-25T12:32:58.549Z,991
2023-05-25T12:34:59.153Z,990.9
2023-05-25T12:39:01.925Z,991
2023-05-25T12:41:03.578Z,991.1
2023-05-25T12:45:05.738Z,990.9
2023-05-25T12:49:08.883Z,990.9
2023-05-25T12:51:09.679Z,990.9
2023-05-25T12:55:13.703Z,990.9
2023-05-25T12:59:16.919Z,990.9
2023-05-25T13:01:18.643Z,990.8
2023-05-25T13:05:21.305Z,990.9
2023-05-25T13:07:22.585Z,990.9
2023-05-25T13:09:24.272Z,990.9
2023-05-25T13:11:25.231Z,990.9
2023-05-25T13:13:26.587Z,990.8
2023-05-25T13:17:28.930Z,990.8
2023-05-25T13:21:31.412Z,990.8
2023-05-25T13:23:32.594Z,990.8
2023-05-25T13:27:35.174Z,990.7
2023-05-25T13:29:36.303Z,990.7
2023-05-25T13:31:37.549Z,990.8
2023-05-25T13:37:42.315Z,990.8
2023-05-25T13:39:43.260Z,990.7
2023-05-25T13:41:44.254Z,990.8
2023-05-25T13:43:45.413Z,990.8
2023-05-25T13:47:47.650Z,990.7
2023-05-25T13:49:48.473Z,990.6
2023-05-25T13:53:51.224Z,990.6
2023-05-25T13:57:53.857Z,990.6
2023-05-25T13:59:55.927Z,990.6
2023-05-25T14:03:58.566Z,990.6
2023-05-25T14:06:00.235Z,990.6
2023-05-25T14:10:03.226Z,990.6
2023-05-25T14:12:04.756Z,990.5
2023-05-25T14:20:10.682Z,990.5
2023-05-25T14:22:13.062Z,990.5
2023-05-25T14:26:14.668Z,990.6
2023-05-25T14:30:16.433Z,990.6
2023-05-25T14:32:18.395Z,990.6
2023-05-25T14:36:20.972Z,990.5
2023-05-25T14:40:24.304Z,990.5
2023-05-25T14:42:25.906Z,990.5
2023-05-25T14:47:12.720Z,990.5
2023-05-25T14:51:15.955Z,990.4
2023-05-25T14:53:18.117Z,990.4
2023-05-25T14:57:20.988Z,990.4
2023-05-25T14:59:22.063Z,990.4
2023-05-25T15:03:24.749Z,990.6
2023-05-25T15:07:27.035Z,990.5
2023-05-25T15:09:28.371Z,990.5
2023-05-25T15:13:31.417Z,990.4
2023-05-25T15:17:33.923Z,990.5
2023-05-25T15:19:36.420Z,990.5
2023-05-25T15:23:40.034Z,990.5
2023-05-25T15:25:41.469Z,990.5
2023-05-25T15:27:42.444Z,990.5
2023-05-25T15:29:43.983Z,990.4
2023-05-25T15:33:54.104Z,990.4
2023-05-25T15:35:47.957Z,990.5
2023-05-25T15:37:49.317Z,990.4
2023-05-25T15:39:50.582Z,990.5
2023-05-25T15:41:52.199Z,990.4
2023-05-25T15:45:56.173Z,990.3
2023-05-25T15:51:59.919Z,990.3
2023-05-25T15:56:02.974Z,990.3
2023-05-25T15:58:03.894Z,990.3
2023-05-25T16:00:04.740Z,990.3
2023-05-25T16:02:06.126Z,990.2
2023-05-25T16:06:08.010Z,990.2
2023-05-25T16:08:10.391Z,990.2
2023-05-25T16:12:12.469Z,990.2
2023-05-25T16:14:14.025Z,990.2
2023-05-25T16:18:17.741Z,990.3
2023-05-25T16:20:18.944Z,990.3
2023-05-25T16:22:19.674Z,990.3
2023-05-25T16:24:21.568Z,990.3
2023-05-25T16:28:23.859Z,990.3
2023-05-25T16:30:24.852Z,990.3
2023-05-25T16:34:27.378Z,990.3
2023-05-25T16:38:29.888Z,990.2
2023-05-25T16:40:30.995Z,990.3
2023-05-25T16:44:33.914Z,990.3
2023-05-25T16:48:35.596Z,990.3
2023-05-25T16:50:36.419Z,990.4
2023-05-25T16:54:39.181Z,990.3
2023-05-25T16:56:40.305Z,990.3
2023-05-25T17:00:42.734Z,990.2
2023-05-25T17:04:45.237Z,990.3
2023-05-25T17:06:46.149Z,990.2
2023-05-25T17:08:47.797Z,990.3
2023-05-25T17:10:48.797Z,990.2
2023-05-25T17:16:53.301Z,990.3
2023-05-25T17:20:56.115Z,990.3
2023-05-25T17:22:57.040Z,990.3
2023-05-25T17:26:59.394Z,990.3
2023-05-25T17:31:02.620Z,990.3
2023-05-25T17:33:04.334Z,990.2
2023-05-25T17:37:07.352Z,990.2
2023-05-25T17:39:08.531Z,990.3
2023-05-25T17:43:11.081Z,990.4
2023-05-25T17:47:13.913Z,990.3
2023-05-25T17:49:14.811Z,990.4
2023-05-25T17:53:18.245Z,990.3
2023-05-25T17:55:19.802Z,990.4
2023-05-25T17:59:22.353Z,990.3
2023-05-25T18:03:25.054Z,990.4
2023-05-25T18:05:25.973Z,990.4
2023-05-25T18:09:28.739Z,990.4
2023-05-25T18:15:33.428Z,990.3
2023-05-25T18:19:36.118Z,990.3
2023-05-25T18:21:37.655Z,990.3
2023-05-25T18:25:40.261Z,990.4
2023-05-25T18:29:43.198Z,990.5
2023-05-25T18:31:44.590Z,990.4
2023-05-25T18:35:47.353Z,990.5
2023-05-25T18:37:48.494Z,990.5
2023-05-25T18:41:50.562Z,990.5
2023-05-25T18:45:53.254Z,990.5
2023-05-25T18:47:54.433Z,990.4
2023-05-25T18:51:57.343Z,990.5
2023-05-25T18:53:58.823Z,990.6
2023-05-25T18:58:01.275Z,990.6
2023-05-25T19:02:04.373Z,990.6
2023-05-25T19:04:05.766Z,990.6
2023-05-25T19:08:08.033Z,990.7
2023-05-25T19:12:10.844Z,990.8
2023-05-25T19:14:12.165Z,990.8
2023-05-25T19:18:14.658Z,990.8
2023-05-25T19:20:16.310Z,991
2023-05-25T19:24:19.242Z,990.8
2023-05-25T19:28:21.862Z,991
2023-05-25T19:30:23.068Z,991
2023-05-25T19:34:26.102Z,990.9
2023-05-25T19:36:27.498Z,991
2023-05-25T19:40:30.043Z,991
2023-05-25T19:44:33.476Z,991.2
2023-05-25T19:46:34.412Z,991
2023-05-25T19:50:37.320Z,991.1
2023-05-25T19:54:40.230Z,991.1
2023-05-25T19:56:42.922Z,991.1
2023-05-25T20:00:43.275Z,991.2
2023-05-25T20:02:44.594Z,991.2
2023-05-25T20:04:46.309Z,991.2
2023-05-25T20:06:47.442Z,991.2
2023-05-25T20:10:49.655Z,991.2
2023-05-25T20:12:50.875Z,991.3
2023-05-25T20:14:52.605Z,991.2
2023-05-25T20:16:54.433Z,991.3
2023-05-25T20:18:56.009Z,991.2
2023-05-25T20:22:58.126Z,991.3
2023-05-25T20:24:59.371Z,991.2
2023-05-25T20:27:01.040Z,991.2
2023-05-25T20:29:02.919Z,991.3
2023-05-25T20:33:06.206Z,991.3
2023-05-25T20:39:10.456Z,991.2
2023-05-25T20:43:13.740Z,991.3
2023-05-25T20:45:15.388Z,991.4
2023-05-25T20:47:17.199Z,991.3
2023-05-25T20:49:18.961Z,991.5
2023-05-25T20:53:21.905Z,991.5
2023-05-25T20:55:23.336Z,991.4
2023-05-25T20:57:24.485Z,991.4
2023-05-25T20:59:25.623Z,991.5
2023-05-25T21:01:27.050Z,991.5
2023-05-25T21:05:29.889Z,991.6
2023-05-25T21:07:30.782Z,991.6
2023-05-25T21:09:31.846Z,991.6
2023-05-25T21:11:33.506Z,991.7
2023-05-25T21:15:35.892Z,991.6
2023-05-25T21:17:36.983Z,991.7
2023-05-25T21:21:39.541Z,991.6
2023-05-25T21:25:41.856Z,991.8
2023-05-25T21:27:43.176Z,991.7
2023-05-25T21:30:28.128Z,991.7
2023-05-25T21:32:29.833Z,991.8
2023-05-25T21:36:32.773Z,991.9
2023-05-25T21:38:43.457Z,991.8
2023-05-25T21:42:36.645Z,991.9
2023-05-25T21:46:39.448Z,991.8
2023-05-25T21:48:41.048Z,991.9
2023-05-25T21:52:52.765Z,991.9
2023-05-25T21:54:45.434Z,991.9
2023-05-25T21:58:48.465Z,992
2023-05-25T22:02:50.372Z,991.9
2023-05-25T22:04:51.520Z,992
2023-05-25T22:08:54.202Z,992
2023-05-25T22:12:56.416Z,992.1
2023-05-25T22:14:58.223Z,992.1
2023-05-25T22:19:01.438Z,992.1
2023-05-25T22:21:02.954Z,992.1
2023-05-25T22:23:04.488Z,992.1
2023-05-25T22:25:06.342Z,992.1
2023-05-25T22:29:09.077Z,992.2
2023-05-25T22:31:10.939Z,992.2
2023-05-25T22:35:13.231Z,992.2
2023-05-25T22:37:14.739Z,992.3
2023-05-25T22:41:17.820Z,992.3
2023-05-25T22:45:20.077Z,992.4
2023-05-25T22:47:21.545Z,992.3
2023-05-25T22:51:24.145Z,992.4
2023-05-25T22:53:25.164Z,992.4
2023-05-25T22:57:27.732Z,992.3
2023-05-25T23:01:30.545Z,992.3
2023-05-25T23:03:32.180Z,992.4
2023-05-25T23:07:34.424Z,992.3
2023-05-25T23:11:37.304Z,992.3
2023-05-25T23:13:38.776Z,992.4
2023-05-25T23:17:42.414Z,992.3
2023-05-25T23:19:43.975Z,992.4
2023-05-25T23:23:46.723Z,992.4
2023-05-25T23:27:49.347Z,992.3
2023-05-25T23:29:50.991Z,992.4
2023-05-25T23:33:53.652Z,992.4
2023-05-25T23:35:55.283Z,992.3
2023-05-25T23:39:57.705Z,992.4
2023-05-25T23:44:00.507Z,992.5
2023-05-25T23:46:01.500Z,992.5
2023-05-25T23:50:04.284Z,992.5
2023-05-25T23:54:07.511Z,992.5
2023-05-25T23:56:09.123Z,992.5
